createdAt,value
2022-11-25T00:01:26.809Z,99832.63
2022-11-25T00:03:56.366Z,99827.53
2022-11-25T00:06:27.190Z,99828.91
2022-11-25T00:08:57.554Z,99833.94
2022-11-25T00:11:26.019Z,99828.63
2022-11-25T00:13:54.725Z,99833.97
2022-11-25T00:16:26.624Z,99838.16
2022-11-25T00:18:57.000Z,99843.47
2022-11-25T00:21:29.334Z,99844.63
2022-11-25T00:23:58.925Z,99838.00
2022-11-25T00:26:28.646Z,99836.16
2022-11-25T00:28:59.092Z,99820.53
2022-11-25T00:31:30.357Z,99837.22
2022-11-25T00:33:59.449Z,99842.81
2022-11-25T00:36:30.380Z,99844.97
2022-11-25T00:39:00.054Z,99832.47
2022-11-25T00:41:46.401Z,99839.94
2022-11-25T00:44:33.681Z,99834.63
2022-11-25T00:47:02.738Z,99828.00
2022-11-25T00:49:31.150Z,99835.69
2022-11-25T00:52:01.127Z,99833.63
2022-11-25T00:54:29.340Z,99838.06
2022-11-25T00:56:57.480Z,99837.22
2022-11-25T00:59:25.717Z,99826.59
2022-11-25T01:01:54.299Z,99841.75
2022-11-25T01:04:22.451Z,99837.00
2022-11-25T01:06:50.580Z,99846.13
2022-11-25T01:09:26.100Z,99826.28
2022-11-25T01:11:54.595Z,99837.41
2022-11-25T01:14:23.751Z,99822.47
2022-11-25T01:16:52.343Z,99832.03
2022-11-25T01:19:21.146Z,99837.91
2022-11-25T01:21:49.304Z,99843.22
2022-11-25T01:24:18.063Z,99847.41
2022-11-25T01:26:48.107Z,99839.41
2022-11-25T01:29:18.481Z,99831.16
2022-11-25T01:31:48.451Z,99831.16
2022-11-25T01:34:19.056Z,99838.84
2022-11-25T01:36:47.758Z,99835.19
2022-11-25T01:39:19.308Z,99837.34
2022-11-25T01:41:49.384Z,99841.38
2022-11-25T01:44:19.363Z,99838.44
2022-11-25T01:47:01.928Z,99833.13
2022-11-25T01:49:37.873Z,99850.13
2022-11-25T01:52:12.112Z,99844.03
2022-11-25T01:54:46.912Z,99839.22
2022-11-25T01:57:20.656Z,99833.31
2022-11-25T01:59:52.719Z,99825.63
2022-11-25T02:02:22.493Z,99829.53
2022-11-25T02:04:50.820Z,99837.22
2022-11-25T02:07:26.481Z,99846.25
2022-11-25T02:09:56.966Z,99846.78
2022-11-25T02:12:28.284Z,99835.88
2022-11-25T02:14:58.268Z,99837.78
2022-11-25T02:17:26.740Z,99839.94
2022-11-25T02:20:01.300Z,99841.00
2022-11-25T02:22:40.996Z,99846.31
2022-11-25T02:25:15.209Z,99849.00
2022-11-25T02:27:46.249Z,99863.34
2022-11-25T02:30:15.050Z,99865.28
2022-11-25T02:32:46.637Z,99869.38
2022-11-25T02:35:33.378Z,99867.50
2022-11-25T02:38:06.550Z,99877.75
2022-11-25T02:40:41.995Z,99859.16
2022-11-25T02:43:10.268Z,99868.16
2022-11-25T02:45:52.192Z,99866.00
2022-11-25T02:48:23.951Z,99857.03
2022-11-25T02:51:02.947Z,99860.47
2022-11-25T02:53:31.150Z,99854.13
2022-11-25T02:56:01.114Z,99863.91
2022-11-25T02:58:29.712Z,99854.94
2022-11-25T03:00:58.129Z,99864.72
2022-11-25T03:03:26.316Z,99859.72
2022-11-25T03:05:54.434Z,99865.28
2022-11-25T03:08:22.673Z,99877.47
2022-11-25T03:10:50.943Z,99890.00
2022-11-25T03:13:20.613Z,99892.06
2022-11-25T03:15:48.760Z,99906.22
2022-11-25T03:18:16.804Z,99888.94
2022-11-25T03:20:44.884Z,99901.66
2022-11-25T03:23:12.980Z,99897.75
2022-11-25T03:25:41.353Z,99875.47
2022-11-25T03:28:09.433Z,99892.75
2022-11-25T03:30:39.087Z,99903.38
2022-11-25T03:33:07.173Z,99893.59
2022-11-25T03:35:35.432Z,99909.03
2022-11-25T03:38:03.581Z,99903.16
2022-11-25T03:40:31.677Z,99923.88
2022-11-25T03:42:59.796Z,99929.94
2022-11-25T03:45:27.878Z,99929.38
2022-11-25T03:47:57.367Z,99931.28
2022-11-25T03:50:25.695Z,99944.56
2022-11-25T03:52:53.751Z,99946.25
2022-11-25T03:55:22.012Z,99949.69
2022-11-25T03:57:50.130Z,99951.88
2022-11-25T04:00:18.617Z,99956.63
2022-11-25T04:02:46.922Z,99961.66
2022-11-25T04:05:16.742Z,99957.44
2022-11-25T04:07:44.968Z,99969.97
2022-11-25T04:10:13.410Z,99950.84
2022-11-25T04:12:49.839Z,99953.53
2022-11-25T04:15:18.901Z,99950.97
2022-11-25T04:17:47.227Z,99963.69
2022-11-25T04:20:17.188Z,99959.63
2022-11-25T04:22:45.454Z,99961.78
2022-11-25T04:25:13.783Z,99954.88
2022-11-25T04:27:41.951Z,99958.63
2022-11-25T04:30:11.305Z,99966.25
2022-11-25T04:32:40.023Z,99966.47
2022-11-25T04:35:09.058Z,99980.25
2022-11-25T04:37:38.526Z,99975.47
2022-11-25T04:40:07.876Z,99968.22
2022-11-25T04:42:37.021Z,99990.09
2022-11-25T04:45:22.460Z,99989.53
2022-11-25T04:47:51.622Z,100008.19
2022-11-25T04:50:22.264Z,100018.69
2022-11-25T04:52:52.066Z,100019.78
2022-11-25T04:55:20.490Z,100019.25
2022-11-25T04:57:48.623Z,100031.47
2022-11-25T05:00:16.706Z,100042.44
2022-11-25T05:02:44.827Z,100032.13
2022-11-25T05:05:13.069Z,100038.75
2022-11-25T05:07:41.785Z,100040.06
2022-11-25T05:10:11.700Z,100043.22
2022-11-25T05:12:40.456Z,100053.38
2022-11-25T05:15:09.609Z,100076.44
2022-11-25T05:17:38.274Z,100068.47
2022-11-25T05:20:07.739Z,100074.31
2022-11-25T05:22:36.736Z,100086.25
2022-11-25T05:25:06.894Z,100098.50
2022-11-25T05:27:36.622Z,100104.59
2022-11-25T05:30:05.442Z,100107.03
2022-11-25T05:32:33.547Z,100098.75
2022-11-25T05:35:01.698Z,100111.75
2022-11-25T05:37:29.959Z,100114.41
2022-11-25T05:39:58.090Z,100120.16
2022-11-25T05:42:26.208Z,100129.38
2022-11-25T05:44:55.714Z,100133.31
2022-11-25T05:47:24.000Z,100133.03
2022-11-25T05:49:52.264Z,100133.16
2022-11-25T05:52:20.512Z,100139.03
2022-11-25T05:54:50.487Z,100134.50
2022-11-25T05:57:21.342Z,100139.47
2022-11-25T05:59:49.601Z,100150.88
2022-11-25T06:02:19.169Z,100147.84
2022-11-25T06:04:47.516Z,100155.25
2022-11-25T06:07:15.762Z,100156.56
2022-11-25T06:09:43.855Z,100156.78
2022-11-25T06:12:11.966Z,100167.91
2022-11-25T06:14:40.072Z,100169.47
2022-11-25T06:17:08.376Z,100171.84
2022-11-25T06:19:37.887Z,100178.97
2022-11-25T06:22:06.078Z,100172.88
2022-11-25T06:24:34.527Z,100174.56
2022-11-25T06:27:03.262Z,100187.03
2022-11-25T06:29:31.314Z,100191.50
2022-11-25T06:31:59.426Z,100188.03
2022-11-25T06:34:27.769Z,100185.34
2022-11-25T06:36:57.373Z,100194.56
2022-11-25T06:39:26.195Z,100198.00
2022-11-25T06:41:54.313Z,100204.41
2022-11-25T06:44:22.462Z,100210.00
2022-11-25T06:46:50.621Z,100203.34
2022-11-25T06:49:18.907Z,100215.13
2022-11-25T06:51:47.102Z,100215.19
2022-11-25T06:54:16.619Z,100217.22
2022-11-25T06:56:45.221Z,100218.56
2022-11-25T06:59:13.290Z,100220.16
2022-11-25T07:01:41.641Z,100239.47
2022-11-25T07:04:09.739Z,100228.03
2022-11-25T07:06:37.909Z,100233.59
2022-11-25T07:09:06.962Z,100232.47
2022-11-25T07:11:38.114Z,100240.41
2022-11-25T07:14:08.084Z,100240.34
2022-11-25T07:16:36.458Z,100233.66
2022-11-25T07:19:05.084Z,100239.78
2022-11-25T07:21:34.411Z,100234.00
2022-11-25T07:24:04.606Z,100240.13
2022-11-25T07:26:34.594Z,100237.47
2022-11-25T07:29:18.245Z,100239.78
2022-11-25T07:31:55.113Z,100249.53
2022-11-25T07:34:23.263Z,100239.19
2022-11-25T07:36:51.981Z,100254.03
2022-11-25T07:39:21.499Z,100260.13
2022-11-25T07:41:52.583Z,100244.94
2022-11-25T07:44:22.658Z,100242.63
2022-11-25T07:46:52.328Z,100246.91
2022-11-25T07:49:25.046Z,100253.72
2022-11-25T07:51:55.002Z,100248.00
2022-11-25T07:54:25.192Z,100258.53
2022-11-25T07:56:53.712Z,100248.47
2022-11-25T07:59:24.310Z,100257.63
2022-11-25T08:01:53.669Z,100253.81
2022-11-25T08:04:22.671Z,100245.09
2022-11-25T08:06:53.007Z,100253.44
2022-11-25T08:09:23.752Z,100251.44
2022-11-25T08:11:52.879Z,100249.41
2022-11-25T08:14:22.505Z,100241.50
2022-11-25T08:16:50.698Z,100241.66
2022-11-25T08:19:20.035Z,100237.63
2022-11-25T08:21:48.913Z,100241.00
2022-11-25T08:24:18.540Z,100236.47
2022-11-25T08:26:47.189Z,100237.81
2022-11-25T08:29:18.179Z,100251.03
2022-11-25T08:31:47.845Z,100262.19
2022-11-25T08:34:20.145Z,100259.66
2022-11-25T08:36:49.136Z,100266.34
2022-11-25T08:39:44.118Z,100257.22
2022-11-25T08:42:07.356Z,100257.06
2022-11-25T08:44:35.580Z,100259.16
2022-11-25T08:47:05.500Z,100254.69
2022-11-25T08:49:39.142Z,100240.78
2022-11-25T08:52:09.215Z,100255.78
2022-11-25T08:54:37.812Z,100259.25
2022-11-25T08:57:05.939Z,100254.19
2022-11-25T08:59:34.220Z,100255.13
2022-11-25T09:02:02.503Z,100255.06
2022-11-25T09:04:32.057Z,100262.75
2022-11-25T09:07:00.276Z,100262.19
2022-11-25T09:09:28.999Z,100263.19
2022-11-25T09:11:57.102Z,100279.13
2022-11-25T09:14:25.329Z,100268.69
2022-11-25T09:16:53.728Z,100273.59
2022-11-25T09:19:22.513Z,100278.00
2022-11-25T09:21:52.023Z,100267.25
2022-11-25T09:24:20.071Z,100278.94
2022-11-25T09:26:49.478Z,100275.16
2022-11-25T09:29:17.755Z,100276.06
2022-11-25T09:31:50.057Z,100287.56
2022-11-25T09:34:21.181Z,100273.44
2022-11-25T09:36:49.351Z,100291.72
2022-11-25T09:39:19.171Z,100290.53
2022-11-25T09:42:23.563Z,100282.72
2022-11-25T09:45:21.146Z,100272.22
2022-11-25T09:48:02.843Z,100281.31
2022-11-25T09:50:46.574Z,100284.94
2022-11-25T09:53:26.413Z,100277.22
2022-11-25T09:56:03.418Z,100285.94
2022-11-25T09:58:36.729Z,100284.38
2022-11-25T10:01:16.332Z,100280.28
2022-11-25T10:03:47.873Z,100277.59
2022-11-25T10:06:18.911Z,100264.75
2022-11-25T10:08:50.928Z,100283.22
2022-11-25T10:11:30.079Z,100278.69
2022-11-25T10:14:04.403Z,100291.09
2022-11-25T10:16:37.456Z,100290.06
2022-11-25T10:19:14.959Z,100280.31
2022-11-25T10:21:43.222Z,100291.28
2022-11-25T10:24:15.161Z,100292.31
2022-11-25T10:26:46.932Z,100287.97
2022-11-25T10:29:25.499Z,100290.94
2022-11-25T10:31:59.706Z,100285.47
2022-11-25T10:34:37.155Z,100294.69
2022-11-25T10:37:13.490Z,100297.06
2022-11-25T10:39:42.040Z,100306.00
2022-11-25T10:42:19.895Z,100299.69
2022-11-25T10:44:48.335Z,100311.50
2022-11-25T10:47:33.234Z,100301.53
2022-11-25T10:50:12.751Z,100310.94
2022-11-25T10:52:45.769Z,100303.41
2022-11-25T10:55:16.157Z,100312.94
2022-11-25T10:57:45.837Z,100318.28
2022-11-25T11:00:29.582Z,100310.66
2022-11-25T11:02:59.518Z,100316.31
2022-11-25T11:05:30.024Z,100318.94
2022-11-25T11:08:21.936Z,100318.50
2022-11-25T11:11:11.506Z,100323.13
2022-11-25T11:13:40.977Z,100326.50
2022-11-25T11:16:27.153Z,100332.34
2022-11-25T11:18:56.641Z,100332.28
2022-11-25T11:21:30.868Z,100315.97
2022-11-25T11:24:00.496Z,100325.28
2022-11-25T11:26:30.789Z,100323.50
2022-11-25T11:29:02.700Z,100319.44
2022-11-25T11:31:35.250Z,100326.31
2022-11-25T11:34:30.446Z,100327.72
2022-11-25T11:37:18.262Z,100331.19
2022-11-25T11:40:04.684Z,100348.06
2022-11-25T11:42:43.908Z,100328.25
2022-11-25T11:45:23.640Z,100352.69
2022-11-25T11:48:05.356Z,100357.22
2022-11-25T11:50:38.585Z,100352.31
2022-11-25T11:53:12.738Z,100345.75
2022-11-25T11:56:26.756Z,100341.22
2022-11-25T11:59:04.923Z,100345.53
2022-11-25T12:01:45.335Z,100339.78
2022-11-25T12:04:20.673Z,100337.09
2022-11-25T12:07:01.894Z,100357.81
2022-11-25T12:09:33.761Z,100351.91
2022-11-25T12:12:05.961Z,100360.38
2022-11-25T12:14:40.140Z,100353.63
2022-11-25T12:17:16.379Z,100379.88
2022-11-25T12:19:53.684Z,100378.84
2022-11-25T12:22:26.813Z,100384.75
2022-11-25T12:25:03.204Z,100389.44
2022-11-25T12:27:37.710Z,100380.44
2022-11-25T12:30:08.379Z,100384.97
2022-11-25T12:32:58.510Z,100379.03
2022-11-25T12:35:44.561Z,100384.06
2022-11-25T12:38:22.416Z,100390.63
2022-11-25T12:40:58.557Z,100382.78
2022-11-25T12:43:34.936Z,100391.34
2022-11-25T12:46:13.738Z,100387.97
2022-11-25T12:48:44.396Z,100393.88
2022-11-25T12:51:25.620Z,100396.53
2022-11-25T12:54:07.430Z,100398.91
2022-11-25T12:56:56.272Z,100397.63
2022-11-25T12:59:43.237Z,100391.28
2022-11-25T13:02:35.660Z,100397.09
2022-11-25T13:05:44.697Z,100413.81
2022-11-25T13:08:25.992Z,100400.44
2022-11-25T13:11:10.018Z,100397.03
2022-11-25T13:13:49.423Z,100400.13
2022-11-25T13:16:21.016Z,100405.31
2022-11-25T13:18:50.033Z,100396.84
2022-11-25T13:21:22.587Z,100408.56
2022-11-25T13:23:53.318Z,100413.09
2022-11-25T13:26:47.038Z,100410.72
2022-11-25T13:30:03.938Z,100419.28
2022-11-25T13:32:43.608Z,100421.94
2022-11-25T13:35:32.934Z,100429.75
2022-11-25T13:38:02.651Z,100430.03
2022-11-25T13:40:38.343Z,100421.84
2022-11-25T13:43:20.928Z,100425.00
2022-11-25T13:45:49.308Z,100435.91
2022-11-25T13:48:21.117Z,100427.88
2022-11-25T13:53:41.564Z,100432.22
2022-11-25T13:56:25.611Z,100438.59
2022-11-25T13:59:36.888Z,100432.72
2022-11-25T14:02:35.762Z,100438.59
2022-11-25T14:05:22.997Z,100436.97
2022-11-25T14:08:07.895Z,100446.63
2022-11-25T14:10:46.845Z,100450.41
2022-11-25T14:13:46.055Z,100443.47
2022-11-25T14:16:36.785Z,100445.91
2022-11-25T14:19:55.222Z,100441.03
2022-11-25T14:22:25.994Z,100451.41
2022-11-25T14:24:56.742Z,100456.19
2022-11-25T14:27:28.675Z,100450.34
2022-11-25T14:30:00.889Z,100461.28
2022-11-25T14:32:35.570Z,100464.66
2022-11-25T14:35:10.162Z,100468.09
2022-11-25T14:37:45.053Z,100471.84
2022-11-25T14:40:19.944Z,100477.97
2022-11-25T14:42:53.905Z,100470.53
2022-11-25T14:45:25.160Z,100475.88
2022-11-25T14:47:53.415Z,100487.13
2022-11-25T14:50:38.013Z,100476.91
2022-11-25T14:53:08.175Z,100486.78
2022-11-25T14:55:36.910Z,100488.34
2022-11-25T14:58:06.673Z,100489.91
2022-11-25T15:00:34.934Z,100492.38
2022-11-25T15:03:04.869Z,100501.44
2022-11-25T15:05:34.985Z,100504.38
2022-11-25T15:08:05.478Z,100512.13
2022-11-25T15:10:37.711Z,100508.94
2022-11-25T15:13:14.500Z,100525.69
2022-11-25T15:15:46.403Z,100508.38
2022-11-25T15:18:20.350Z,100517.44
2022-11-25T15:20:51.371Z,100519.56
2022-11-25T15:23:34.762Z,100530.22
2022-11-25T15:26:03.647Z,100529.16
2022-11-25T15:28:37.449Z,100525.44
2022-11-25T15:31:10.519Z,100543.53
2022-11-25T15:33:39.127Z,100532.06
2022-11-25T15:36:07.763Z,100538.50
2022-11-25T15:38:44.020Z,100547.50
2022-11-25T15:41:29.328Z,100541.38
2022-11-25T15:44:01.132Z,100546.72
2022-11-25T15:46:30.600Z,100541.41
2022-11-25T15:49:00.435Z,100549.09
2022-11-25T15:51:35.526Z,100541.66
2022-11-25T15:54:09.080Z,100546.38
2022-11-25T15:56:40.520Z,100541.88
2022-11-25T15:59:46.937Z,100549.88
2022-11-25T16:02:52.019Z,100547.47
2022-11-25T16:05:37.127Z,100555.16
2022-11-25T16:08:26.838Z,100549.59
2022-11-25T16:10:57.023Z,100547.75
2022-11-25T16:13:33.715Z,100547.25
2022-11-25T16:16:13.468Z,100547.22
2022-11-25T16:18:44.253Z,100550.66
2022-11-25T16:21:15.840Z,100560.47
2022-11-25T16:23:47.079Z,100568.19
2022-11-25T16:26:20.286Z,100576.41
2022-11-25T16:28:54.949Z,100569.81
2022-11-25T16:31:24.880Z,100574.84
2022-11-25T16:33:56.510Z,100577.53
2022-11-25T16:36:24.533Z,100575.63
2022-11-25T16:38:57.010Z,100589.53
2022-11-25T16:41:27.241Z,100583.88
2022-11-25T16:43:59.299Z,100595.00
2022-11-25T16:46:29.873Z,100590.97
2022-11-25T16:48:58.405Z,100593.38
2022-11-25T16:51:26.746Z,100599.06
2022-11-25T16:53:54.925Z,100608.84
2022-11-25T16:56:27.935Z,100602.94
2022-11-25T16:58:56.795Z,100597.44
2022-11-25T17:01:27.500Z,100604.38
2022-11-25T17:03:57.033Z,100607.78
2022-11-25T17:06:26.968Z,100605.13
2022-11-25T17:08:55.188Z,100601.44
2022-11-25T17:11:29.218Z,100606.41
2022-11-25T17:13:58.979Z,100604.78
2022-11-25T17:16:29.312Z,100603.47
2022-11-25T17:19:00.913Z,100607.13
2022-11-25T17:21:29.742Z,100607.97
2022-11-25T17:24:03.212Z,100607.97
2022-11-25T17:26:40.561Z,100622.34
2022-11-25T17:29:14.417Z,100621.03
2022-11-25T17:31:43.120Z,100616.97
2022-11-25T17:34:16.286Z,100619.38
2022-11-25T17:36:45.372Z,100629.28
2022-11-25T17:39:15.124Z,100629.03
2022-11-25T17:41:46.365Z,100630.06
2022-11-25T17:44:24.962Z,100635.44
2022-11-25T17:46:53.487Z,100635.94
2022-11-25T17:49:23.703Z,100637.00
2022-11-25T17:51:52.164Z,100645.81
2022-11-25T17:54:20.269Z,100652.97
2022-11-25T17:56:52.334Z,100647.16
2022-11-25T17:59:25.895Z,100654.63
2022-11-25T18:01:56.090Z,100655.69
2022-11-25T18:04:27.296Z,100668.97
2022-11-25T18:06:55.704Z,100664.16
2022-11-25T18:09:23.889Z,100670.03
2022-11-25T18:11:55.053Z,100672.75
2022-11-25T18:14:26.988Z,100672.97
2022-11-25T18:16:56.314Z,100676.91
2022-11-25T18:19:25.983Z,100686.28
2022-11-25T18:21:54.365Z,100670.03
2022-11-25T18:24:22.422Z,100670.59
2022-11-25T18:26:53.121Z,100672.69
2022-11-25T18:29:25.458Z,100674.09
2022-11-25T18:31:56.573Z,100674.13
2022-11-25T18:34:26.777Z,100683.72
2022-11-25T18:36:55.127Z,100691.97
2022-11-25T18:39:23.569Z,100696.81
2022-11-25T18:41:58.149Z,100692.84
2022-11-25T18:44:29.064Z,100699.81
2022-11-25T18:46:57.596Z,100697.69
2022-11-25T18:49:27.047Z,100702.22
2022-11-25T18:51:55.131Z,100719.00
2022-11-25T18:54:23.512Z,100716.34
2022-11-25T18:56:52.950Z,100709.94
2022-11-25T18:59:26.649Z,100716.59
2022-11-25T19:01:55.892Z,100719.00
2022-11-25T19:04:24.152Z,100727.00
2022-11-25T19:06:53.652Z,100723.78
2022-11-25T19:09:22.288Z,100724.09
2022-11-25T19:11:53.761Z,100724.03
2022-11-25T19:14:30.094Z,100721.66
2022-11-25T19:17:02.308Z,100731.78
2022-11-25T19:19:30.885Z,100730.44
2022-11-25T19:22:01.592Z,100740.56
2022-11-25T19:24:30.004Z,100737.88
2022-11-25T19:26:58.790Z,100731.25
2022-11-25T19:29:35.486Z,100741.59
2022-11-25T19:32:14.995Z,100743.47
2022-11-25T19:34:47.536Z,100745.88
2022-11-25T19:37:20.217Z,100737.34
2022-11-25T19:39:48.920Z,100739.22
2022-11-25T19:42:17.003Z,100739.22
2022-11-25T19:44:45.806Z,100749.59
2022-11-25T19:47:17.788Z,100738.16
2022-11-25T19:49:46.402Z,100737.34
2022-11-25T19:52:19.400Z,100734.72
2022-11-25T19:54:47.905Z,100748.53
2022-11-25T19:57:17.845Z,100747.75
2022-11-25T19:59:46.224Z,100746.13
2022-11-25T20:02:17.686Z,100757.31
2022-11-25T20:04:48.150Z,100759.44
2022-11-25T20:07:20.201Z,100763.44
2022-11-25T20:09:49.454Z,100765.31
2022-11-25T20:12:22.737Z,100763.97
2022-11-25T20:14:51.527Z,100767.16
2022-11-25T20:17:26.171Z,100780.19
2022-11-25T20:19:55.987Z,100788.97
2022-11-25T20:22:36.666Z,100781.53
2022-11-25T20:25:10.753Z,100781.53
2022-11-25T20:27:38.953Z,100784.72
2022-11-25T20:30:14.908Z,100791.09
2022-11-25T20:32:43.333Z,100796.69
2022-11-25T20:35:12.260Z,100800.69
2022-11-25T20:37:54.083Z,100797.75
2022-11-25T20:40:24.779Z,100799.88
2022-11-25T20:42:53.339Z,100798.56
2022-11-25T20:45:23.561Z,100796.41
2022-11-25T20:47:53.113Z,100800.13
2022-11-25T20:50:22.254Z,100807.34
2022-11-25T20:52:52.136Z,100814.00
2022-11-25T20:55:23.479Z,100813.16
2022-11-25T20:57:52.489Z,100811.06
2022-11-25T21:00:23.798Z,100818.78
2022-11-25T21:02:52.341Z,100822.75
2022-11-25T21:05:21.075Z,100829.94
2022-11-25T21:07:51.876Z,100827.56
2022-11-25T21:10:25.098Z,100831.28
2022-11-25T21:12:53.973Z,100833.69
2022-11-25T21:15:25.060Z,100825.69
2022-11-25T21:17:58.615Z,100831.56
2022-11-25T21:20:27.296Z,100824.09
2022-11-25T21:22:59.273Z,100828.09
2022-11-25T21:25:27.806Z,100825.16
2022-11-25T21:27:56.056Z,100830.47
2022-11-25T21:30:26.962Z,100832.09
2022-11-25T21:32:56.598Z,100835.28
2022-11-25T21:35:28.783Z,100836.88
2022-11-25T21:37:58.547Z,100831.84
2022-11-25T21:40:34.451Z,100820.38
2022-11-25T21:43:04.329Z,100841.13
2022-11-25T21:45:32.565Z,100841.13
2022-11-25T21:48:00.656Z,100842.19
2022-11-25T21:50:30.128Z,100850.72
2022-11-25T21:53:01.090Z,100853.34
2022-11-25T21:55:29.288Z,100853.88
2022-11-25T21:57:57.419Z,100850.16
2022-11-25T22:00:27.604Z,100857.06
2022-11-25T22:02:56.056Z,100851.75
2022-11-25T22:05:26.727Z,100853.06
2022-11-25T22:07:55.875Z,100846.72
2022-11-25T22:10:25.394Z,100846.97
2022-11-25T22:12:53.553Z,100846.97
2022-11-25T22:15:24.354Z,100849.84
2022-11-25T22:17:56.325Z,100843.22
2022-11-25T22:20:30.767Z,100845.63
2022-11-25T22:22:58.827Z,100847.75
2022-11-25T22:25:31.119Z,100850.41
2022-11-25T22:27:59.342Z,100867.94
2022-11-25T22:30:27.446Z,100854.66
2022-11-25T22:33:02.341Z,100860.22
2022-11-25T22:35:30.663Z,100857.03
2022-11-25T22:37:58.825Z,100861.03
2022-11-25T22:40:28.613Z,100859.66
2022-11-25T22:42:57.584Z,100846.38
2022-11-25T22:45:31.240Z,100857.53
2022-11-25T22:48:00.739Z,100850.66
2022-11-25T22:50:30.896Z,100851.16
2022-11-25T22:52:59.678Z,100857.00
2022-11-25T22:55:31.178Z,100860.19
2022-11-25T22:58:00.553Z,100848.72
2022-11-25T23:00:30.308Z,100853.25
2022-11-25T23:03:01.767Z,100844.75
2022-11-25T23:05:33.352Z,100844.22
2022-11-25T23:08:02.344Z,100848.47
2022-11-25T23:10:32.823Z,100846.06
2022-11-25T23:13:01.453Z,100844.19
2022-11-25T23:15:30.408Z,100836.22
2022-11-25T23:18:00.416Z,100836.78
2022-11-25T23:20:32.205Z,100851.13
2022-11-25T23:23:06.147Z,100849.25
2022-11-25T23:25:35.655Z,100864.16
2022-11-25T23:28:03.816Z,100857.78
2022-11-25T23:30:32.325Z,100869.22
2022-11-25T23:33:00.625Z,100871.34
2022-11-25T23:35:33.807Z,100884.09
2022-11-25T23:38:01.971Z,100883.03
2022-11-25T23:40:30.263Z,100889.41
2022-11-25T23:42:59.756Z,100891.53
2022-11-25T23:45:29.054Z,100902.47
2022-11-25T23:47:58.025Z,100903.78
2022-11-25T23:50:30.469Z,100912.50
2022-11-25T23:53:02.331Z,100929.47
2022-11-25T23:55:33.466Z,100931.94
2022-11-25T23:58:04.326Z,100937.19
